sensor_id;sensor_type;location;lat;lon;timestamp;pressure;altitude;pressure_sealevel;temperature;humidity
43621;BME280;29213;50.770;7.298;2023-05-11T00:02:14;100705.19;;;11.51;64.93
43621;BME280;29213;50.770;7.298;2023-05-11T00:04:39;100721.34;;;11.58;64.89
43621;BME280;29213;50.770;7.298;2023-05-11T00:07:04;100672.00;;;11.20;64.46
43621;BME280;29213;50.770;7.298;2023-05-11T00:09:30;100719.50;;;11.42;65.50
43621;BME280;29213;50.770;7.298;2023-05-11T00:11:56;100394.34;;;9.24;66.26
43621;BME280;29213;50.770;7.298;2023-05-11T00:14:21;100610.81;;;10.69;65.35
43621;BME280;29213;50.770;7.298;2023-05-11T00:16:47;100711.00;;;11.21;65.63
43621;BME280;29213;50.770;7.298;2023-05-11T00:19:12;100676.31;;;10.96;66.08
43621;BME280;29213;50.770;7.298;2023-05-11T00:21:38;100720.50;;;11.24;66.57
43621;BME280;29213;50.770;7.298;2023-05-11T00:24:03;100714.31;;;11.15;66.43
43621;BME280;29213;50.770;7.298;2023-05-11T00:26:29;100713.47;;;11.15;66.72
43621;BME280;29213;50.770;7.298;2023-05-11T00:28:54;100519.59;;;9.90;66.15
43621;BME280;29213;50.770;7.298;2023-05-11T00:31:20;100715.66;;;11.11;67.00
43621;BME280;29213;50.770;7.298;2023-05-11T00:33:45;100661.44;;;10.77;66.54
43621;BME280;29213;50.770;7.298;2023-05-11T00:36:10;100668.47;;;10.78;66.81
43621;BME280;29213;50.770;7.298;2023-05-11T00:38:36;100678.13;;;10.88;66.91
43621;BME280;29213;50.770;7.298;2023-05-11T00:41:05;100713.47;;;11.06;66.73
43621;BME280;29213;50.770;7.298;2023-05-11T00:43:31;100688.44;;;10.82;66.63
43621;BME280;29213;50.770;7.298;2023-05-11T00:45:56;100603.25;;;10.39;67.09
43621;BME280;29213;50.770;7.298;2023-05-11T00:48:22;100631.22;;;10.52;67.57
43621;BME280;29213;50.770;7.298;2023-05-11T00:50:47;100608.41;;;10.41;67.28
43621;BME280;29213;50.770;7.298;2023-05-11T00:53:13;100693.78;;;10.91;67.32
43621;BME280;29213;50.770;7.298;2023-05-11T00:55:38;100462.09;;;9.46;66.99
43621;BME280;29213;50.770;7.298;2023-05-11T00:58:04;100718.63;;;11.00;67.08
43621;BME280;29213;50.770;7.298;2023-05-11T01:00:30;100652.06;;;10.56;67.11
43621;BME280;29213;50.770;7.298;2023-05-11T01:02:56;100652.38;;;10.53;67.31
43621;BME280;29213;50.770;7.298;2023-05-11T01:05:25;100567.69;;;9.97;67.28
43621;BME280;29213;50.770;7.298;2023-05-11T01:08:05;100650.22;;;10.49;67.18
43621;BME280;29213;50.770;7.298;2023-05-11T01:10:44;100721.94;;;10.93;67.29
43621;BME280;29213;50.770;7.298;2023-05-11T01:13:32;100597.84;;;10.14;67.17
43621;BME280;29213;50.770;7.298;2023-05-11T01:16:01;100674.03;;;10.59;67.21
43621;BME280;29213;50.770;7.298;2023-05-11T01:18:41;100715.94;;;10.91;67.20
43621;BME280;29213;50.770;7.298;2023-05-11T01:21:09;100715.25;;;10.89;67.31
43621;BME280;29213;50.770;7.298;2023-05-11T01:31:39;100594.50;;;10.12;67.76
43621;BME280;29213;50.770;7.298;2023-05-11T01:34:13;100649.06;;;10.51;67.93
43621;BME280;29213;50.770;7.298;2023-05-11T01:36:53;100710.78;;;10.90;67.45
43621;BME280;29213;50.770;7.298;2023-05-11T01:39:25;100706.28;;;10.90;67.25
43621;BME280;29213;50.770;7.298;2023-05-11T01:41:52;100695.41;;;10.75;67.80
43621;BME280;29213;50.770;7.298;2023-05-11T01:44:21;100700.28;;;10.88;67.51
43621;BME280;29213;50.770;7.298;2023-05-11T01:46:49;100700.59;;;10.85;67.22
43621;BME280;29213;50.770;7.298;2023-05-11T01:49:16;100693.41;;;10.77;67.51
43621;BME280;29213;50.770;7.298;2023-05-11T01:51:43;100385.56;;;8.62;67.46
43621;BME280;29213;50.770;7.298;2023-05-11T01:54:10;100660.50;;;10.43;67.56
43621;BME280;29213;50.770;7.298;2023-05-11T01:56:37;100665.84;;;10.52;67.81
43621;BME280;29213;50.770;7.298;2023-05-11T01:59:04;100693.88;;;10.64;68.04
43621;BME280;29213;50.770;7.298;2023-05-11T02:01:33;100667.50;;;10.45;68.05
43621;BME280;29213;50.770;7.298;2023-05-11T02:04:01;100472.59;;;9.21;68.02
43621;BME280;29213;50.770;7.298;2023-05-11T02:06:28;100664.53;;;10.48;68.26
43621;BME280;29213;50.770;7.298;2023-05-11T02:08:57;100481.38;;;9.22;67.84
43621;BME280;29213;50.770;7.298;2023-05-11T02:11:25;100586.09;;;9.90;67.65
43621;BME280;29213;50.770;7.298;2023-05-11T02:13:52;100666.03;;;10.50;67.75
43621;BME280;29213;50.770;7.298;2023-05-11T02:16:19;100622.31;;;10.26;67.85
43621;BME280;29213;50.770;7.298;2023-05-11T02:18:46;100673.69;;;10.53;67.66
43621;BME280;29213;50.770;7.298;2023-05-11T02:21:14;100653.16;;;10.37;67.58
43621;BME280;29213;50.770;7.298;2023-05-11T02:23:42;100398.47;;;8.83;67.82
43621;BME280;29213;50.770;7.298;2023-05-11T02:26:11;100620.81;;;10.15;68.20
43621;BME280;29213;50.770;7.298;2023-05-11T02:28:38;100633.25;;;10.15;67.98
43621;BME280;29213;50.770;7.298;2023-05-11T02:31:08;100692.13;;;10.47;67.86
43621;BME280;29213;50.770;7.298;2023-05-11T02:33:42;100678.66;;;10.48;68.22
43621;BME280;29213;50.770;7.298;2023-05-11T02:36:09;100726.16;;;10.69;67.96
43621;BME280;29213;50.770;7.298;2023-05-11T02:38:38;100711.03;;;10.70;67.89
43621;BME280;29213;50.770;7.298;2023-05-11T02:41:11;100661.75;;;10.23;67.86
43621;BME280;29213;50.770;7.298;2023-05-11T02:43:43;100453.34;;;9.01;67.83
43621;BME280;29213;50.770;7.298;2023-05-11T02:46:14;100683.97;;;10.48;68.13
43621;BME280;29213;50.770;7.298;2023-05-11T02:48:48;100719.84;;;10.70;68.31
43621;BME280;29213;50.770;7.298;2023-05-11T02:51:16;100649.28;;;10.23;67.82
43621;BME280;29213;50.770;7.298;2023-05-11T02:53:42;100707.81;;;10.58;67.80
43621;BME280;29213;50.770;7.298;2023-05-11T02:56:09;100629.25;;;10.11;68.11
43621;BME280;29213;50.770;7.298;2023-05-11T02:58:36;100655.75;;;10.21;68.03
43621;BME280;29213;50.770;7.298;2023-05-11T03:01:05;100708.28;;;10.53;68.16
43621;BME280;29213;50.770;7.298;2023-05-11T03:03:31;100655.59;;;10.22;67.84
43621;BME280;29213;50.770;7.298;2023-05-11T03:05:56;100661.94;;;10.29;67.96
43621;BME280;29213;50.770;7.298;2023-05-11T03:08:21;100718.00;;;10.63;67.83
43621;BME280;29213;50.770;7.298;2023-05-11T03:10:47;100649.44;;;10.22;67.71
43621;BME280;29213;50.770;7.298;2023-05-11T03:13:13;100694.13;;;10.45;67.74
43621;BME280;29213;50.770;7.298;2023-05-11T03:15:39;100700.94;;;10.47;67.77
43621;BME280;29213;50.770;7.298;2023-05-11T03:18:06;100634.41;;;10.12;67.61
43621;BME280;29213;50.770;7.298;2023-05-11T03:20:35;100667.44;;;10.28;67.92
43621;BME280;29213;50.770;7.298;2023-05-11T03:23:03;100605.41;;;9.93;67.78
43621;BME280;29213;50.770;7.298;2023-05-11T03:25:29;100627.94;;;10.07;67.76
43621;BME280;29213;50.770;7.298;2023-05-11T03:27:56;100656.41;;;10.23;67.77
43621;BME280;29213;50.770;7.298;2023-05-11T03:30:22;100659.75;;;10.25;67.61
43621;BME280;29213;50.770;7.298;2023-05-11T03:32:49;100599.03;;;9.85;67.72
43621;BME280;29213;50.770;7.298;2023-05-11T03:35:15;100630.75;;;10.05;67.83
43621;BME280;29213;50.770;7.298;2023-05-11T03:37:41;100690.25;;;10.39;67.86
43621;BME280;29213;50.770;7.298;2023-05-11T03:40:08;100705.13;;;10.50;67.92
43621;BME280;29213;50.770;7.298;2023-05-11T03:42:36;100682.91;;;10.33;67.76
43621;BME280;29213;50.770;7.298;2023-05-11T03:45:02;100649.38;;;10.13;67.88
43621;BME280;29213;50.770;7.298;2023-05-11T03:47:31;100641.06;;;10.08;68.01
43621;BME280;29213;50.770;7.298;2023-05-11T03:49:57;100485.06;;;9.03;67.87
43621;BME280;29213;50.770;7.298;2023-05-11T03:52:23;100432.63;;;8.78;68.01
43621;BME280;29213;50.770;7.298;2023-05-11T03:54:49;100451.31;;;8.68;67.99
43621;BME280;29213;50.770;7.298;2023-05-11T03:57:15;100475.44;;;9.02;68.08
43621;BME280;29213;50.770;7.298;2023-05-11T03:59:40;100696.78;;;10.45;68.51
43621;BME280;29213;50.770;7.298;2023-05-11T04:02:07;100705.63;;;10.45;68.41
43621;BME280;29213;50.770;7.298;2023-05-11T04:04:32;100651.25;;;10.21;68.48
43621;BME280;29213;50.770;7.298;2023-05-11T04:06:58;100532.47;;;9.42;68.30
43621;BME280;29213;50.770;7.298;2023-05-11T04:09:24;100635.41;;;10.03;68.55
43621;BME280;29213;50.770;7.298;2023-05-11T04:11:50;100578.66;;;9.68;68.45
43621;BME280;29213;50.770;7.298;2023-05-11T04:14:15;100675.47;;;10.36;68.78
43621;BME280;29213;50.770;7.298;2023-05-11T04:16:42;100680.59;;;10.38;68.48
43621;BME280;29213;50.770;7.298;2023-05-11T04:19:07;100641.09;;;10.16;68.56
43621;BME280;29213;50.770;7.298;2023-05-11T04:21:33;100675.78;;;10.33;68.74
43621;BME280;29213;50.770;7.298;2023-05-11T04:23:59;100513.69;;;9.35;68.53
43621;BME280;29213;50.770;7.298;2023-05-11T04:26:25;100680.09;;;10.34;68.61
43621;BME280;29213;50.770;7.298;2023-05-11T04:28:50;100546.84;;;9.49;68.74
43621;BME280;29213;50.770;7.298;2023-05-11T04:31:15;100655.06;;;10.19;68.61
43621;BME280;29213;50.770;7.298;2023-05-11T04:33:41;100667.91;;;10.23;68.56
43621;BME280;29213;50.770;7.298;2023-05-11T04:36:06;100527.78;;;9.36;68.56
43621;BME280;29213;50.770;7.298;2023-05-11T04:38:32;100596.00;;;9.80;68.93
43621;BME280;29213;50.770;7.298;2023-05-11T04:41:01;100558.66;;;9.55;68.77
43621;BME280;29213;50.770;7.298;2023-05-11T04:43:27;100633.88;;;10.00;68.87
43621;BME280;29213;50.770;7.298;2023-05-11T04:45:52;100426.28;;;8.71;68.76
43621;BME280;29213;50.770;7.298;2023-05-11T04:48:18;100652.75;;;10.15;68.79
43621;BME280;29213;50.770;7.298;2023-05-11T04:50:43;100700.28;;;10.45;69.03
43621;BME280;29213;50.770;7.298;2023-05-11T04:53:09;100494.06;;;9.10;69.01
43621;BME280;29213;50.770;7.298;2023-05-11T04:55:34;100683.13;;;10.39;69.09
43621;BME280;29213;50.770;7.298;2023-05-11T04:58:00;100654.72;;;10.13;69.10
43621;BME280;29213;50.770;7.298;2023-05-11T05:00:25;100705.06;;;10.41;68.89
43621;BME280;29213;50.770;7.298;2023-05-11T05:02:50;100647.22;;;10.09;68.84
43621;BME280;29213;50.770;7.298;2023-05-11T05:05:16;100677.50;;;10.16;68.74
43621;BME280;29213;50.770;7.298;2023-05-11T05:07:42;100676.91;;;10.22;69.03
43621;BME280;29213;50.770;7.298;2023-05-11T05:10:08;100476.06;;;8.95;69.00
43621;BME280;29213;50.770;7.298;2023-05-11T05:12:37;100705.84;;;10.25;69.16
43621;BME280;29213;50.770;7.298;2023-05-11T05:15:03;100706.13;;;10.49;69.14
43621;BME280;29213;50.770;7.298;2023-05-11T05:17:30;100749.97;;;10.71;69.05
43621;BME280;29213;50.770;7.298;2023-05-11T05:19:55;100428.78;;;8.73;69.02
43621;BME280;29213;50.770;7.298;2023-05-11T05:22:22;100739.84;;;10.75;69.09
43621;BME280;29213;50.770;7.298;2023-05-11T05:24:48;100692.47;;;10.43;69.02
43621;BME280;29213;50.770;7.298;2023-05-11T05:27:13;100700.28;;;10.45;69.13
43621;BME280;29213;50.770;7.298;2023-05-11T05:29:39;100742.13;;;10.69;69.24
43621;BME280;29213;50.770;7.298;2023-05-11T05:32:04;100683.75;;;10.33;69.34
43621;BME280;29213;50.770;7.298;2023-05-11T05:34:29;100763.88;;;10.83;69.16
43621;BME280;29213;50.770;7.298;2023-05-11T05:36:55;100700.28;;;10.45;69.44
43621;BME280;29213;50.770;7.298;2023-05-11T05:39:20;100696.13;;;10.42;69.72
43621;BME280;29213;50.770;7.298;2023-05-11T05:41:46;100450.94;;;8.90;69.03
43621;BME280;29213;50.770;7.298;2023-05-11T05:44:11;100680.59;;;10.29;68.98
43621;BME280;29213;50.770;7.298;2023-05-11T05:46:37;100728.31;;;10.66;69.19
43621;BME280;29213;50.770;7.298;2023-05-11T05:49:02;100764.72;;;10.92;69.14
43621;BME280;29213;50.770;7.298;2023-05-11T05:51:28;100689.78;;;10.43;68.86
43621;BME280;29213;50.770;7.298;2023-05-11T05:53:53;100743.38;;;10.75;68.93
43621;BME280;29213;50.770;7.298;2023-05-11T05:56:18;100588.84;;;9.72;68.78
43621;BME280;29213;50.770;7.298;2023-05-11T05:58:45;100689.94;;;10.42;68.69
43621;BME280;29213;50.770;7.298;2023-05-11T06:01:11;100767.72;;;10.89;68.96
43621;BME280;29213;50.770;7.298;2023-05-11T06:03:36;100724.97;;;10.64;68.82
43621;BME280;29213;50.770;7.298;2023-05-11T06:06:02;100703.81;;;10.54;68.55
43621;BME280;29213;50.770;7.298;2023-05-11T06:08:28;100778.91;;;11.01;68.76
43621;BME280;29213;50.770;7.298;2023-05-11T06:10:53;100482.66;;;9.18;68.37
43621;BME280;29213;50.770;7.298;2023-05-11T06:13:18;100753.56;;;10.88;68.64
43621;BME280;29213;50.770;7.298;2023-05-11T06:15:44;100740.06;;;10.81;68.41
43621;BME280;29213;50.770;7.298;2023-05-11T06:18:09;100759.59;;;10.99;68.11
43621;BME280;29213;50.770;7.298;2023-05-11T06:20:35;100484.41;;;9.27;67.72
43621;BME280;29213;50.770;7.298;2023-05-11T06:23:00;100779.47;;;11.21;67.77
43621;BME280;29213;50.770;7.298;2023-05-11T06:25:26;100665.97;;;10.42;68.09
43621;BME280;29213;50.770;7.298;2023-05-11T06:27:52;100642.19;;;10.40;68.34
43621;BME280;29213;50.770;7.298;2023-05-11T06:30:17;100780.66;;;11.35;68.49
43621;BME280;29213;50.770;7.298;2023-05-11T06:32:43;100731.94;;;11.08;68.24
43621;BME280;29213;50.770;7.298;2023-05-11T06:35:08;100694.44;;;10.85;67.49
43621;BME280;29213;50.770;7.298;2023-05-11T06:37:34;100717.47;;;11.02;67.12
43621;BME280;29213;50.770;7.298;2023-05-11T06:40:00;100772.69;;;11.43;66.99
43621;BME280;29213;50.770;7.298;2023-05-11T06:42:26;100779.19;;;11.57;67.26
43621;BME280;29213;50.770;7.298;2023-05-11T06:44:51;100742.66;;;11.41;66.54
43621;BME280;29213;50.770;7.298;2023-05-11T06:47:17;100726.66;;;11.33;66.40
43621;BME280;29213;50.770;7.298;2023-05-11T06:49:42;100764.84;;;11.58;66.67
43621;BME280;29213;50.770;7.298;2023-05-11T06:52:08;100724.84;;;11.42;66.24
43621;BME280;29213;50.770;7.298;2023-05-11T06:54:33;100751.16;;;11.61;66.52
43621;BME280;29213;50.770;7.298;2023-05-11T06:56:59;100784.19;;;11.77;66.09
43621;BME280;29213;50.770;7.298;2023-05-11T06:59:26;100693.50;;;11.27;65.32
43621;BME280;29213;50.770;7.298;2023-05-11T07:01:51;100744.84;;;11.62;65.42
43621;BME280;29213;50.770;7.298;2023-05-11T07:04:16;100729.50;;;11.56;66.41
43621;BME280;29213;50.770;7.298;2023-05-11T07:06:42;100731.00;;;11.50;66.36
43621;BME280;29213;50.770;7.298;2023-05-11T07:09:08;100767.19;;;11.70;65.92
43621;BME280;29213;50.770;7.298;2023-05-11T07:11:34;100675.50;;;11.13;65.68
43621;BME280;29213;50.770;7.298;2023-05-11T07:13:59;100711.84;;;11.47;65.21
43621;BME280;29213;50.770;7.298;2023-05-11T07:16:25;100671.16;;;11.28;65.56
43621;BME280;29213;50.770;7.298;2023-05-11T07:18:51;100753.84;;;11.86;65.42
43621;BME280;29213;50.770;7.298;2023-05-11T07:21:16;100693.50;;;11.44;65.11
43621;BME280;29213;50.770;7.298;2023-05-11T07:23:42;100713.00;;;11.61;65.21
43621;BME280;29213;50.770;7.298;2023-05-11T07:26:08;100756.50;;;11.86;65.42
43621;BME280;29213;50.770;7.298;2023-05-11T07:28:35;100738.81;;;11.77;65.83
43621;BME280;29213;50.770;7.298;2023-05-11T07:31:00;100746.50;;;11.88;66.04
43621;BME280;29213;50.770;7.298;2023-05-11T07:33:26;100753.53;;;11.98;66.46
43621;BME280;29213;50.770;7.298;2023-05-11T07:35:51;100665.50;;;11.48;66.63
43621;BME280;29213;50.770;7.298;2023-05-11T07:38:17;100731.66;;;11.86;66.49
43621;BME280;29213;50.770;7.298;2023-05-11T07:40:42;100742.19;;;11.96;66.73
43621;BME280;29213;50.770;7.298;2023-05-11T07:43:08;100737.16;;;12.01;66.63
43621;BME280;29213;50.770;7.298;2023-05-11T07:45:33;100668.66;;;11.52;66.43
43621;BME280;29213;50.770;7.298;2023-05-11T07:47:59;100684.00;;;11.66;65.87
43621;BME280;29213;50.770;7.298;2023-05-11T07:50:25;100780.16;;;12.31;65.88
43621;BME280;29213;50.770;7.298;2023-05-11T07:52:50;100703.47;;;11.83;65.11
43621;BME280;29213;50.770;7.298;2023-05-11T07:55:15;100705.44;;;11.89;64.81
43621;BME280;29213;50.770;7.298;2023-05-11T07:57:41;100756.13;;;12.23;65.57
43621;BME280;29213;50.770;7.298;2023-05-11T08:00:07;100790.13;;;12.46;65.89
43621;BME280;29213;50.770;7.298;2023-05-11T08:02:33;100781.78;;;12.40;65.73
43621;BME280;29213;50.770;7.298;2023-05-11T08:04:59;100700.31;;;11.88;65.79
43621;BME280;29213;50.770;7.298;2023-05-11T08:07:24;100640.31;;;11.50;66.06
43621;BME280;29213;50.770;7.298;2023-05-11T08:09:49;100743.31;;;12.18;65.99
43621;BME280;29213;50.770;7.298;2023-05-11T08:12:15;100723.31;;;12.06;65.97
43621;BME280;29213;50.770;7.298;2023-05-11T08:14:40;100722.16;;;12.00;65.96
43621;BME280;29213;50.770;7.298;2023-05-11T08:17:07;100720.97;;;12.02;65.50
43621;BME280;29213;50.770;7.298;2023-05-11T08:19:32;100695.31;;;11.93;65.05
43621;BME280;29213;50.770;7.298;2023-05-11T08:21:59;100719.47;;;12.00;64.28
43621;BME280;29213;50.770;7.298;2023-05-11T08:24:25;100762.97;;;12.34;65.03
43621;BME280;29213;50.770;7.298;2023-05-11T08:26:50;100786.94;;;12.50;65.61
43621;BME280;29213;50.770;7.298;2023-05-11T08:29:16;100574.03;;;11.22;64.98
43621;BME280;29213;50.770;7.298;2023-05-11T08:31:41;100686.09;;;12.04;64.76
43621;BME280;29213;50.770;7.298;2023-05-11T08:34:07;100784.22;;;12.67;64.74
43621;BME280;29213;50.770;7.298;2023-05-11T08:36:34;100707.75;;;12.26;65.13
43621;BME280;29213;50.770;7.298;2023-05-11T08:39:00;100765.31;;;12.68;65.18
43621;BME280;29213;50.770;7.298;2023-05-11T08:41:25;100737.16;;;12.58;64.63
43621;BME280;29213;50.770;7.298;2023-05-11T08:43:51;100757.50;;;12.67;63.32
43621;BME280;29213;50.770;7.298;2023-05-11T08:46:20;100796.69;;;12.83;62.12
43621;BME280;29213;50.770;7.298;2023-05-11T08:48:46;100770.53;;;12.62;62.71
43621;BME280;29213;50.770;7.298;2023-05-11T08:51:12;100654.25;;;11.86;63.19
43621;BME280;29213;50.770;7.298;2023-05-11T08:53:38;100742.56;;;12.49;62.97
43621;BME280;29213;50.770;7.298;2023-05-11T08:56:06;100709.38;;;12.35;62.58
43621;BME280;29213;50.770;7.298;2023-05-11T08:58:34;100768.28;;;12.82;62.39
43621;BME280;29213;50.770;7.298;2023-05-11T09:01:02;100785.25;;;12.98;63.08
43621;BME280;29213;50.770;7.298;2023-05-11T09:03:29;100789.88;;;13.12;63.31
43621;BME280;29213;50.770;7.298;2023-05-11T09:05:54;100656.56;;;12.46;62.27
43621;BME280;29213;50.770;7.298;2023-05-11T09:08:21;100724.75;;;12.96;60.39
43621;BME280;29213;50.770;7.298;2023-05-11T09:10:47;100703.91;;;12.92;60.45
43621;BME280;29213;50.770;7.298;2023-05-11T09:13:13;100778.97;;;13.45;59.64
43621;BME280;29213;50.770;7.298;2023-05-11T09:15:38;100749.84;;;13.50;60.91
43621;BME280;29213;50.770;7.298;2023-05-11T09:18:04;100736.78;;;13.71;60.72
43621;BME280;29213;50.770;7.298;2023-05-11T09:20:30;100790.28;;;14.33;59.04
43621;BME280;29213;50.770;7.298;2023-05-11T09:22:56;100786.22;;;14.37;59.23
43621;BME280;29213;50.770;7.298;2023-05-11T09:25:23;100798.44;;;14.39;59.98
43621;BME280;29213;50.770;7.298;2023-05-11T09:27:48;100716.69;;;14.05;60.74
43621;BME280;29213;50.770;7.298;2023-05-11T09:30:16;100783.72;;;14.50;59.69
43621;BME280;29213;50.770;7.298;2023-05-11T09:32:46;100636.38;;;13.60;58.51
43621;BME280;29213;50.770;7.298;2023-05-11T09:35:34;100782.06;;;14.49;58.74
43621;BME280;29213;50.770;7.298;2023-05-11T09:38:07;100662.56;;;13.65;57.00
43621;BME280;29213;50.770;7.298;2023-05-11T09:40:38;100736.47;;;14.04;57.48
43621;BME280;29213;50.770;7.298;2023-05-11T09:43:15;100752.78;;;14.18;58.25
43621;BME280;29213;50.770;7.298;2023-05-11T09:45:43;100782.88;;;14.35;59.18
43621;BME280;29213;50.770;7.298;2023-05-11T09:50:44;100778.44;;;14.42;60.26
43621;BME280;29213;50.770;7.298;2023-05-11T09:53:09;100732.56;;;14.15;60.04
43621;BME280;29213;50.770;7.298;2023-05-11T09:55:35;100778.94;;;14.46;57.57
43621;BME280;29213;50.770;7.298;2023-05-11T09:58:00;100728.69;;;14.18;58.90
43621;BME280;29213;50.770;7.298;2023-05-11T10:00:26;100775.13;;;14.55;58.37
43621;BME280;29213;50.770;7.298;2023-05-11T10:03:18;100762.00;;;14.45;58.95
43621;BME280;29213;50.770;7.298;2023-05-11T10:06:00;100766.53;;;14.60;57.70
43621;BME280;29213;50.770;7.298;2023-05-11T10:08:31;100702.63;;;14.26;58.32
43621;BME280;29213;50.770;7.298;2023-05-11T10:11:02;100731.16;;;14.49;58.76
43621;BME280;29213;50.770;7.298;2023-05-11T10:13:29;100766.50;;;14.75;58.95
43621;BME280;29213;50.770;7.298;2023-05-11T10:15:58;100762.63;;;14.77;58.06
43621;BME280;29213;50.770;7.298;2023-05-11T10:18:24;100768.31;;;14.89;56.34
43621;BME280;29213;50.770;7.298;2023-05-11T10:20:50;100678.19;;;14.51;55.06
43621;BME280;29213;50.770;7.298;2023-05-11T10:23:17;100756.59;;;15.05;55.68
43621;BME280;29213;50.770;7.298;2023-05-11T10:25:44;100646.22;;;14.50;54.74
43621;BME280;29213;50.770;7.298;2023-05-11T10:28:10;100528.28;;;13.91;55.15
43621;BME280;29213;50.770;7.298;2023-05-11T10:30:35;100520.63;;;13.88;56.77
43621;BME280;29213;50.770;7.298;2023-05-11T10:33:01;100692.88;;;14.92;55.05
43621;BME280;29213;50.770;7.298;2023-05-11T10:35:27;100474.59;;;13.77;53.99
43621;BME280;29213;50.770;7.298;2023-05-11T10:37:53;100585.84;;;14.32;51.93
43621;BME280;29213;50.770;7.298;2023-05-11T10:40:19;100670.13;;;14.88;52.82
43621;BME280;29213;50.770;7.298;2023-05-11T10:43:01;100745.22;;;15.25;49.60
43621;BME280;29213;50.770;7.298;2023-05-11T10:45:31;100736.72;;;15.21;52.11
43621;BME280;29213;50.770;7.298;2023-05-11T10:51:07;100739.59;;;15.42;52.59
43621;BME280;29213;50.770;7.298;2023-05-11T10:53:57;100739.91;;;15.54;54.11
43621;BME280;29213;50.770;7.298;2023-05-11T11:01:50;100664.44;;;15.13;52.86
43621;BME280;29213;50.770;7.298;2023-05-11T11:04:16;100459.03;;;14.03;52.09
43621;BME280;29213;50.770;7.298;2023-05-11T11:06:45;100723.88;;;15.60;51.28
43621;BME280;29213;50.770;7.298;2023-05-11T11:09:12;100403.59;;;13.60;50.58
43621;BME280;29213;50.770;7.298;2023-05-11T11:11:43;100654.66;;;15.27;51.14
43621;BME280;29213;50.770;7.298;2023-05-11T11:14:13;100730.97;;;15.97;50.83
43621;BME280;29213;50.770;7.298;2023-05-11T11:16:40;100738.91;;;16.12;52.29
43621;BME280;29213;50.770;7.298;2023-05-11T11:21:54;100650.25;;;15.76;50.41
43621;BME280;29213;50.770;7.298;2023-05-11T11:27:01;100679.75;;;15.98;48.40
43621;BME280;29213;50.770;7.298;2023-05-11T11:29:28;100607.56;;;15.53;49.55
43621;BME280;29213;50.770;7.298;2023-05-11T11:31:54;100711.41;;;16.10;49.12
43621;BME280;29213;50.770;7.298;2023-05-11T11:34:39;100725.16;;;16.28;50.71
43621;BME280;29213;50.770;7.298;2023-05-11T11:37:06;100654.81;;;15.83;51.12
43621;BME280;29213;50.770;7.298;2023-05-11T11:42:17;100693.41;;;16.03;50.09
43621;BME280;29213;50.770;7.298;2023-05-11T11:44:44;100715.19;;;16.22;50.54
43621;BME280;29213;50.770;7.298;2023-05-11T11:47:20;100711.84;;;16.13;49.65
43621;BME280;29213;50.770;7.298;2023-05-11T11:49:53;100711.84;;;16.13;49.31
43621;BME280;29213;50.770;7.298;2023-05-11T11:54:50;100696.22;;;15.95;50.13
43621;BME280;29213;50.770;7.298;2023-05-11T12:00:02;100720.31;;;16.10;51.84
43621;BME280;29213;50.770;7.298;2023-05-11T12:02:33;100660.25;;;15.61;50.44
43621;BME280;29213;50.770;7.298;2023-05-11T12:05:16;100656.94;;;15.59;49.72
43621;BME280;29213;50.770;7.298;2023-05-11T12:07:44;100690.56;;;15.83;50.31
43621;BME280;29213;50.770;7.298;2023-05-11T12:10:14;100684.56;;;15.81;50.47
43621;BME280;29213;50.770;7.298;2023-05-11T12:12:45;100710.84;;;15.93;51.36
43621;BME280;29213;50.770;7.298;2023-05-11T12:15:27;100723.78;;;16.04;50.03
43621;BME280;29213;50.770;7.298;2023-05-11T12:17:53;100643.78;;;15.64;49.77
43621;BME280;29213;50.770;7.298;2023-05-11T12:20:19;100617.00;;;15.42;49.29
43621;BME280;29213;50.770;7.298;2023-05-11T12:22:46;100563.06;;;15.08;49.91
43621;BME280;29213;50.770;7.298;2023-05-11T12:25:14;100608.00;;;15.28;50.00
43621;BME280;29213;50.770;7.298;2023-05-11T12:27:48;100679.00;;;15.83;49.64
43621;BME280;29213;50.770;7.298;2023-05-11T12:30:21;100671.38;;;15.86;49.23
43621;BME280;29213;50.770;7.298;2023-05-11T12:32:47;100649.16;;;15.71;49.21
43621;BME280;29213;50.770;7.298;2023-05-11T12:35:13;100364.47;;;14.02;49.02
43621;BME280;29213;50.770;7.298;2023-05-11T12:37:41;100709.88;;;16.29;48.25
43621;BME280;29213;50.770;7.298;2023-05-11T12:40:10;100636.25;;;15.88;49.00
43621;BME280;29213;50.770;7.298;2023-05-11T12:42:36;100674.03;;;16.15;48.27
43621;BME280;29213;50.770;7.298;2023-05-11T12:45:03;100628.25;;;15.95;48.41
43621;BME280;29213;50.770;7.298;2023-05-11T12:47:30;100622.47;;;15.91;48.50
43621;BME280;29213;50.770;7.298;2023-05-11T12:49:55;100564.69;;;15.67;47.73
43621;BME280;29213;50.770;7.298;2023-05-11T12:52:23;100648.56;;;16.04;47.59
43621;BME280;29213;50.770;7.298;2023-05-11T12:54:49;100690.88;;;16.37;47.87
43621;BME280;29213;50.770;7.298;2023-05-11T12:57:28;100685.06;;;16.34;46.81
43621;BME280;29213;50.770;7.298;2023-05-11T13:00:08;100581.13;;;15.50;48.14
43621;BME280;29213;50.770;7.298;2023-05-11T13:02:34;100681.69;;;16.18;49.12
43621;BME280;29213;50.770;7.298;2023-05-11T13:05:09;100637.81;;;16.04;49.50
43621;BME280;29213;50.770;7.298;2023-05-11T13:07:36;100631.44;;;16.05;48.61
43621;BME280;29213;50.770;7.298;2023-05-11T13:10:01;100660.25;;;16.25;48.35
43621;BME280;29213;50.770;7.298;2023-05-11T13:12:27;100685.72;;;16.42;47.74
43621;BME280;29213;50.770;7.298;2023-05-11T13:15:10;100681.38;;;16.41;47.40
43621;BME280;29213;50.770;7.298;2023-05-11T13:17:41;100622.53;;;16.05;46.23
43621;BME280;29213;50.770;7.298;2023-05-11T13:20:29;100680.16;;;16.44;47.93
43621;BME280;29213;50.770;7.298;2023-05-11T13:28:13;100472.13;;;15.14;47.74
43621;BME280;29213;50.770;7.298;2023-05-11T13:30:39;100671.47;;;16.49;49.01